Pagrindinis puslapis
METAR-TAF:

METAR-TAF

Oro uostai :

Akaba, Jordanija

platuma: 29-38N, ilguma: 035-01E, Aukštis: 53 m

Dabartinis oras

Ataskaita buvo paskelbta 1 valandą ir 1 minutes, ne 21:00 UTC
Vėjas 14 kt iš Šiaurės
Temperatūra 29°C
Drėgmė 48%
Slėgis 1012 hPa
Matomumas 10 km arba daugiau
nėra debesų žemiau 1500 m ir nėra kamuolinių lietaus debesų

METAR: OJAQ 272100Z 35014KT CAVOK 29/17 Q1012 NOSIG

Laikas: 01:01 (22:01 UTC)

Prognozė

Ataskaita buvo paskelbta 5 valandos ir 1 minutes, ne 17:00 UTC
Prognozė galioja nuo 27 metu 18 UTC su 28 metu 24 UTC
Vėjas 10 kt iš Šiaurės
Matomumas: 7000 m
Laikinai
nuo 28 metu 12 UTC su 28 metu 18 UTC
Matomumas: 5000 m
Dulkes pustymas

TAF: OJAQ 271700Z 2718/2824 36010KT 7000 NSC TEMPO 2812/2818 01016 5000 BLDU

Orai ataskaitas ir orų prognozės (METAR, TAF).

turimą stotys yra geltonos ir raudonos taškus žemėlapyje.

Perkelti pele per norėdami pamatyti stoties vardą.

Tada spustelėkite, norėdami matyti oro stebėjimo ir prognozės.

Norėdami pakeisti žemėlapį: spustelėkite ant žalios mygtukų su juodo kryžiaus žemyn,; žalią mygtuką su brūkšneliu, jei norite nutolinti; arba žalių rodyklių gretimoms žemėlapius.


METAR-TAF: